createdAt,value
2019-05-26T00:03:21.505Z,16.90
2019-05-26T00:07:30.586Z,16.90
2019-05-26T00:11:35.269Z,16.90
2019-05-26T00:15:41.058Z,17.00
2019-05-26T00:19:47.133Z,16.90
2019-05-26T00:23:56.190Z,16.90
2019-05-26T00:28:00.399Z,16.80
2019-05-26T00:32:06.547Z,16.60
2019-05-26T00:36:12.263Z,16.30
2019-05-26T00:40:18.172Z,16.30
2019-05-26T00:44:23.985Z,16.50
2019-05-26T00:48:29.853Z,16.60
2019-05-26T00:52:35.683Z,16.60
2019-05-26T01:00:49.172Z,16.50
2019-05-26T01:04:54.877Z,16.30
2019-05-26T01:09:00.629Z,16.20
2019-05-26T01:13:07.476Z,16.20
2019-05-26T01:17:13.260Z,16.20
2019-05-26T01:21:19.091Z,16.20
2019-05-26T01:25:24.857Z,16.40
2019-05-26T01:29:30.590Z,16.40
2019-05-26T01:33:36.365Z,16.40
2019-05-26T01:37:43.577Z,16.40
2019-05-26T01:41:49.315Z,16.20
2019-05-26T01:45:55.060Z,16.10
2019-05-26T01:50:00.818Z,15.90
2019-05-26T01:54:06.686Z,15.90
2019-05-26T01:58:12.398Z,15.80
2019-05-26T02:02:18.419Z,15.70
2019-05-26T02:06:24.127Z,15.70
2019-05-26T02:10:29.937Z,15.90
2019-05-26T02:14:35.694Z,16.00
2019-05-26T02:18:41.367Z,15.90
2019-05-26T02:22:47.292Z,15.70
2019-05-26T02:26:53.049Z,15.60
2019-05-26T02:30:58.766Z,15.50
2019-05-26T02:35:06.453Z,15.60
2019-05-26T02:39:12.266Z,15.80
2019-05-26T02:43:18.359Z,15.90
2019-05-26T02:47:24.155Z,15.90
2019-05-26T02:51:30.008Z,15.90
2019-05-26T02:55:35.715Z,15.80
2019-05-26T02:59:41.352Z,15.60
2019-05-26T03:03:47.308Z,15.50
2019-05-26T03:07:54.553Z,15.70
2019-05-26T03:12:03.233Z,15.70
2019-05-26T03:16:11.501Z,15.70
2019-05-26T03:20:19.610Z,15.50
2019-05-26T03:24:28.964Z,15.50
2019-05-26T03:28:34.745Z,15.50
2019-05-26T03:32:40.791Z,15.60
2019-05-26T03:36:46.492Z,15.70
2019-05-26T03:40:52.400Z,15.70
2019-05-26T03:44:58.080Z,15.70
2019-05-26T03:49:03.932Z,15.70
2019-05-26T03:53:09.619Z,15.60
2019-05-26T03:57:16.369Z,15.70
2019-05-26T04:01:22.231Z,15.80
2019-05-26T04:05:27.934Z,15.90
2019-05-26T04:09:33.769Z,15.90
2019-05-26T04:13:39.455Z,15.90
2019-05-26T04:17:45.161Z,15.80
2019-05-26T04:21:51.087Z,15.80
2019-05-26T04:25:56.924Z,15.90
2019-05-26T04:30:02.826Z,16.00
2019-05-26T04:34:47.076Z,16.10
2019-05-26T04:38:52.867Z,16.00
2019-05-26T04:42:58.562Z,16.20
2019-05-26T04:47:04.463Z,16.30
2019-05-26T04:51:10.217Z,16.30
2019-05-26T04:55:16.130Z,16.40
2019-05-26T04:59:21.986Z,16.40
2019-05-26T05:03:27.686Z,16.50
2019-05-26T05:07:33.541Z,16.60
2019-05-26T05:11:39.399Z,16.60
2019-05-26T05:15:45.154Z,16.60
2019-05-26T05:19:50.935Z,16.70
2019-05-26T05:23:56.714Z,16.80
2019-05-26T05:28:02.438Z,16.80
2019-05-26T05:32:08.260Z,16.90
2019-05-26T05:36:14.157Z,16.80
2019-05-26T05:40:21.513Z,16.90
2019-05-26T05:44:27.546Z,17.00
2019-05-26T05:48:33.402Z,17.10
2019-05-26T05:52:39.215Z,17.20
2019-05-26T05:56:44.957Z,17.30
2019-05-26T06:00:50.695Z,17.40
2019-05-26T06:04:56.562Z,17.50
2019-05-26T06:09:02.275Z,17.70
2019-05-26T06:13:09.021Z,17.80
2019-05-26T06:17:14.783Z,17.90
2019-05-26T06:21:20.636Z,18.10
2019-05-26T06:25:26.686Z,18.20
2019-05-26T06:29:32.710Z,18.40
2019-05-26T06:33:38.461Z,18.60
2019-05-26T06:37:44.293Z,18.80
2019-05-26T06:41:49.986Z,19.00
2019-05-26T06:45:56.018Z,19.10
2019-05-26T06:50:01.703Z,19.30
2019-05-26T06:54:07.687Z,19.50
2019-05-26T06:58:13.422Z,19.60
2019-05-26T07:02:19.404Z,19.80
2019-05-26T07:06:25.087Z,20.00
2019-05-26T07:10:30.798Z,20.10
2019-05-26T07:14:36.676Z,20.40
2019-05-26T07:18:42.379Z,20.60
2019-05-26T07:22:48.127Z,20.90
2019-05-26T07:26:53.882Z,21.20
2019-05-26T07:30:59.792Z,21.50
2019-05-26T07:35:07.593Z,21.60
2019-05-26T07:39:13.420Z,21.90
2019-05-26T07:43:19.295Z,22.30
2019-05-26T07:47:24.985Z,22.60
2019-05-26T07:51:30.690Z,22.80
2019-05-26T07:55:36.502Z,22.90
2019-05-26T07:59:42.219Z,23.20
2019-05-26T08:03:47.909Z,23.50
2019-05-26T08:07:53.640Z,23.70
2019-05-26T08:11:59.519Z,23.40
2019-05-26T08:16:05.278Z,23.60
2019-05-26T08:24:15.624Z,24.10
2019-05-26T08:28:21.391Z,24.70
2019-05-26T08:32:27.173Z,25.00
2019-05-26T08:36:32.878Z,25.20
2019-05-26T08:40:38.851Z,25.30
2019-05-26T08:44:44.524Z,25.50
2019-05-26T08:48:50.345Z,25.90
2019-05-26T08:52:56.164Z,26.10
2019-05-26T08:57:01.853Z,26.30
2019-05-26T09:01:07.690Z,26.50
2019-05-26T09:05:14.080Z,26.50
2019-05-26T09:09:20.827Z,26.80
2019-05-26T09:13:26.577Z,27.20
2019-05-26T09:17:32.498Z,27.70
2019-05-26T09:21:38.965Z,28.00
2019-05-26T09:25:46.638Z,28.30
2019-05-26T09:29:52.237Z,28.50
2019-05-26T09:33:57.933Z,28.30
2019-05-26T09:38:03.658Z,27.80
2019-05-26T09:42:13.229Z,27.80
2019-05-26T09:46:18.999Z,27.70
2019-05-26T09:50:26.120Z,28.50
2019-05-26T09:54:31.906Z,29.00
2019-05-26T09:58:37.665Z,29.20
2019-05-26T10:02:43.436Z,29.50
2019-05-26T10:06:49.108Z,29.80
2019-05-26T10:10:55.439Z,30.10
2019-05-26T10:15:01.266Z,29.30
2019-05-26T10:19:07.030Z,28.70
2019-05-26T10:23:12.713Z,27.50
2019-05-26T10:27:18.449Z,27.20
2019-05-26T10:31:24.147Z,27.20
2019-05-26T10:35:29.859Z,29.10
2019-05-26T10:39:35.526Z,29.90
2019-05-26T10:43:47.162Z,28.70
2019-05-26T10:47:48.821Z,27.60
2019-05-26T10:51:55.235Z,26.90
2019-05-26T10:56:01.008Z,26.20
2019-05-26T11:00:09.113Z,25.80
2019-05-26T11:04:14.885Z,25.60
2019-05-26T11:08:20.562Z,25.60
2019-05-26T11:12:26.279Z,25.90
2019-05-26T11:16:32.108Z,26.10
2019-05-26T11:20:38.580Z,26.80
2019-05-26T11:24:44.276Z,26.40
2019-05-26T11:28:50.494Z,26.10
2019-05-26T11:32:59.434Z,26.30
2019-05-26T11:37:03.745Z,27.90
2019-05-26T11:41:09.459Z,28.50
2019-05-26T11:45:18.860Z,28.40
2019-05-26T11:49:24.484Z,28.00
2019-05-26T11:53:30.191Z,27.40
2019-05-26T11:57:37.363Z,27.00
2019-05-26T12:01:44.018Z,26.40
2019-05-26T12:05:49.846Z,26.10
2019-05-26T12:09:55.617Z,25.90
2019-05-26T12:14:01.395Z,25.50
2019-05-26T12:18:07.184Z,25.40
2019-05-26T12:22:12.896Z,25.50
2019-05-26T12:26:18.563Z,25.60
2019-05-26T12:30:24.503Z,26.70
2019-05-26T12:34:30.188Z,28.60
2019-05-26T12:38:37.528Z,30.00
2019-05-26T12:42:43.449Z,30.80
2019-05-26T12:46:49.130Z,30.70
2019-05-26T12:50:54.912Z,29.70
2019-05-26T12:55:00.654Z,28.90
2019-05-26T12:59:06.641Z,29.00
2019-05-26T13:03:12.394Z,29.60
2019-05-26T13:07:18.143Z,29.40
2019-05-26T13:11:23.939Z,30.20
2019-05-26T13:15:29.662Z,30.80
2019-05-26T13:19:35.381Z,29.70
2019-05-26T13:23:41.252Z,28.80
2019-05-26T13:27:46.974Z,28.90
2019-05-26T13:31:53.103Z,29.40
2019-05-26T13:35:58.840Z,29.40
2019-05-26T13:40:08.896Z,30.10
2019-05-26T13:44:14.604Z,30.30
2019-05-26T13:48:20.371Z,29.20
2019-05-26T13:52:26.237Z,29.50
2019-05-26T13:56:31.934Z,29.00
2019-05-26T14:00:38.597Z,28.30
2019-05-26T14:04:44.369Z,27.70
2019-05-26T14:08:50.142Z,28.10
2019-05-26T14:12:55.906Z,29.00
2019-05-26T14:17:03.385Z,29.70
2019-05-26T14:21:09.038Z,29.30
2019-05-26T14:25:16.320Z,29.40
2019-05-26T14:29:22.104Z,29.80
2019-05-26T14:33:27.861Z,29.90
2019-05-26T14:37:33.561Z,30.00
2019-05-26T14:41:39.764Z,30.00
2019-05-26T14:45:53.319Z,30.10
2019-05-26T14:49:53.044Z,30.00
2019-05-26T14:53:58.773Z,30.00
2019-05-26T14:58:15.031Z,29.70
2019-05-26T15:02:12.689Z,29.80
2019-05-26T15:06:18.386Z,29.70
2019-05-26T15:10:24.206Z,29.70
2019-05-26T15:14:29.909Z,29.30
2019-05-26T15:18:35.829Z,29.30
2019-05-26T15:22:41.584Z,29.20
2019-05-26T15:26:47.433Z,29.00
2019-05-26T15:30:53.191Z,29.00
2019-05-26T15:34:58.904Z,28.80
2019-05-26T15:39:06.877Z,28.70
2019-05-26T15:43:12.577Z,28.40
2019-05-26T15:47:18.289Z,28.00
2019-05-26T15:51:24.020Z,27.60
2019-05-26T15:55:29.819Z,27.40
2019-05-26T15:59:35.541Z,27.10
2019-05-26T16:03:41.344Z,26.80
2019-05-26T16:07:47.105Z,26.60
2019-05-26T16:11:52.780Z,26.50
2019-05-26T16:16:06.895Z,26.40
2019-05-26T16:20:13.290Z,26.70
2019-05-26T16:24:19.000Z,26.50
2019-05-26T16:28:24.697Z,26.30
2019-05-26T16:32:30.448Z,26.10
2019-05-26T16:36:36.148Z,25.90
2019-05-26T16:40:41.856Z,25.70
2019-05-26T16:44:47.913Z,25.70
2019-05-26T16:48:54.880Z,25.60
2019-05-26T16:53:01.742Z,25.40
2019-05-26T16:57:07.724Z,25.30
2019-05-26T17:01:13.446Z,25.20
2019-05-26T17:05:19.434Z,25.00
2019-05-26T17:09:25.140Z,25.20
2019-05-26T17:13:32.999Z,25.10
2019-05-26T17:17:38.205Z,25.00
2019-05-26T17:21:43.933Z,25.00
2019-05-26T17:25:49.776Z,24.90
2019-05-26T17:29:55.528Z,24.80
2019-05-26T17:34:01.288Z,24.80
2019-05-26T17:38:08.020Z,24.70
2019-05-26T17:42:13.885Z,24.60
2019-05-26T17:46:19.567Z,24.50
2019-05-26T17:50:25.355Z,24.40
2019-05-26T17:54:31.135Z,24.70
2019-05-26T17:58:36.821Z,25.00
2019-05-26T18:02:42.552Z,25.10
2019-05-26T18:06:48.490Z,25.00
2019-05-26T18:10:54.214Z,25.00
2019-05-26T18:15:00.012Z,25.00
2019-05-26T18:19:05.793Z,24.80
2019-05-26T18:23:11.576Z,24.70
2019-05-26T18:27:17.436Z,24.60
2019-05-26T18:31:23.139Z,24.40
2019-05-26T18:35:28.960Z,24.40
2019-05-26T18:39:34.816Z,24.20
2019-05-26T18:43:40.544Z,24.20
2019-05-26T18:48:01.303Z,24.00
2019-05-26T18:51:53.927Z,23.90
2019-05-26T18:56:00.627Z,23.90
2019-05-26T19:00:11.139Z,23.70
2019-05-26T19:04:16.898Z,23.20
2019-05-26T19:08:23.629Z,23.10
2019-05-26T19:12:29.799Z,23.00
2019-05-26T19:16:35.635Z,23.30
2019-05-26T19:20:41.503Z,23.50
2019-05-26T19:24:47.303Z,23.70
2019-05-26T19:28:53.212Z,23.80
2019-05-26T19:32:58.949Z,23.70
2019-05-26T19:37:04.874Z,22.90
2019-05-26T19:41:11.267Z,22.90
2019-05-26T19:45:17.656Z,23.30
2019-05-26T19:49:23.545Z,23.40
2019-05-26T19:53:29.395Z,23.30
2019-05-26T19:57:35.505Z,23.20
2019-05-26T20:01:41.630Z,23.20
2019-05-26T20:05:47.481Z,23.30
2019-05-26T20:09:53.355Z,23.10
2019-05-26T20:13:59.053Z,22.70
2019-05-26T20:18:05.085Z,22.90
2019-05-26T20:22:10.891Z,23.10
2019-05-26T20:26:16.935Z,23.10
2019-05-26T20:30:23.614Z,23.10
2019-05-26T20:34:29.627Z,23.10
2019-05-26T20:38:36.099Z,23.10
2019-05-26T20:42:41.832Z,23.10
2019-05-26T20:46:47.907Z,23.00
2019-05-26T20:50:53.836Z,22.90
2019-05-26T20:55:00.633Z,22.80
2019-05-26T20:59:06.502Z,22.80
2019-05-26T21:03:13.312Z,22.90
2019-05-26T21:07:19.037Z,22.80
2019-05-26T21:11:24.733Z,22.70
2019-05-26T21:15:30.433Z,22.20
2019-05-26T21:19:36.609Z,21.80
2019-05-26T21:23:42.326Z,22.30
2019-05-26T21:27:48.070Z,22.50
2019-05-26T21:31:53.943Z,22.50
2019-05-26T21:35:59.772Z,22.30
2019-05-26T21:40:08.020Z,22.20
2019-05-26T21:44:14.105Z,22.10
2019-05-26T21:48:20.005Z,22.00
2019-05-26T21:52:25.703Z,21.90
2019-05-26T21:56:31.408Z,21.80
2019-05-26T22:00:38.937Z,21.60
2019-05-26T22:04:44.678Z,21.80
2019-05-26T22:08:50.362Z,21.30
2019-05-26T22:12:57.067Z,20.90
2019-05-26T22:17:02.808Z,20.80
2019-05-26T22:21:08.499Z,20.90
2019-05-26T22:25:14.314Z,21.10
2019-05-26T22:29:19.994Z,20.30
2019-05-26T22:33:25.698Z,20.30
2019-05-26T22:37:31.374Z,20.60
2019-05-26T22:41:37.244Z,21.20
2019-05-26T22:45:43.009Z,21.60
2019-05-26T22:49:48.713Z,21.90
2019-05-26T22:53:54.396Z,21.80
2019-05-26T22:58:00.162Z,22.00
2019-05-26T23:02:06.088Z,22.00
2019-05-26T23:06:11.796Z,22.10
2019-05-26T23:10:17.896Z,22.20
2019-05-26T23:14:23.591Z,22.20
2019-05-26T23:18:29.451Z,22.20
2019-05-26T23:22:35.064Z,22.10
2019-05-26T23:26:40.967Z,22.10
2019-05-26T23:30:47.287Z,22.10
2019-05-26T23:34:52.972Z,22.10
2019-05-26T23:38:58.700Z,21.90
2019-05-26T23:43:04.392Z,22.00
2019-05-26T23:47:10.074Z,22.10
2019-05-26T23:51:15.770Z,22.10
2019-05-26T23:55:21.478Z,22.00
2019-05-26T23:59:27.172Z,22.10
